sensor_id;sensor_type;location;lat;lon;timestamp;temperature;humidity
44170;DHT22;29836;52.286;9.576;2022-10-31T00:01:14;13.50;99.90
44170;DHT22;29836;52.286;9.576;2022-10-31T00:03:40;13.50;99.90
44170;DHT22;29836;52.286;9.576;2022-10-31T00:06:06;13.50;99.90
44170;DHT22;29836;52.286;9.576;2022-10-31T00:08:31;13.40;99.90
44170;DHT22;29836;52.286;9.576;2022-10-31T00:10:57;13.40;99.90
44170;DHT22;29836;52.286;9.576;2022-10-31T00:13:22;13.40;99.90
44170;DHT22;29836;52.286;9.576;2022-10-31T00:15:48;13.60;99.90
44170;DHT22;29836;52.286;9.576;2022-10-31T00:18:13;13.60;99.90
44170;DHT22;29836;52.286;9.576;2022-10-31T00:20:39;13.70;99.90
44170;DHT22;29836;52.286;9.576;2022-10-31T00:23:05;13.80;99.90
44170;DHT22;29836;52.286;9.576;2022-10-31T00:25:37;13.90;99.90
44170;DHT22;29836;52.286;9.576;2022-10-31T00:28:04;13.90;99.90
44170;DHT22;29836;52.286;9.576;2022-10-31T00:30:30;14.00;99.90
44170;DHT22;29836;52.286;9.576;2022-10-31T00:32:55;14.00;99.90
44170;DHT22;29836;52.286;9.576;2022-10-31T00:35:21;14.10;99.90
44170;DHT22;29836;52.286;9.576;2022-10-31T00:37:46;14.10;99.90
44170;DHT22;29836;52.286;9.576;2022-10-31T00:40:12;14.10;99.90
44170;DHT22;29836;52.286;9.576;2022-10-31T00:42:39;14.10;99.90
44170;DHT22;29836;52.286;9.576;2022-10-31T00:45:10;14.10;99.90
44170;DHT22;29836;52.286;9.576;2022-10-31T00:47:35;14.00;99.90
44170;DHT22;29836;52.286;9.576;2022-10-31T00:50:02;14.10;99.90
44170;DHT22;29836;52.286;9.576;2022-10-31T00:52:27;14.10;99.90
44170;DHT22;29836;52.286;9.576;2022-10-31T00:54:53;14.10;99.90
44170;DHT22;29836;52.286;9.576;2022-10-31T00:57:18;14.20;99.90
44170;DHT22;29836;52.286;9.576;2022-10-31T00:59:44;14.20;99.90
44170;DHT22;29836;52.286;9.576;2022-10-31T01:02:09;14.30;99.90
44170;DHT22;29836;52.286;9.576;2022-10-31T01:04:35;14.30;99.90
44170;DHT22;29836;52.286;9.576;2022-10-31T01:07:00;14.40;99.90
44170;DHT22;29836;52.286;9.576;2022-10-31T01:09:26;14.40;99.90
44170;DHT22;29836;52.286;9.576;2022-10-31T01:11:51;14.40;99.90
44170;DHT22;29836;52.286;9.576;2022-10-31T01:14:17;14.40;99.90
44170;DHT22;29836;52.286;9.576;2022-10-31T01:16:42;14.40;99.90
44170;DHT22;29836;52.286;9.576;2022-10-31T01:19:08;14.50;99.90
44170;DHT22;29836;52.286;9.576;2022-10-31T01:21:33;14.60;99.90
44170;DHT22;29836;52.286;9.576;2022-10-31T01:23:59;14.60;99.90
44170;DHT22;29836;52.286;9.576;2022-10-31T01:26:29;14.70;99.90
44170;DHT22;29836;52.286;9.576;2022-10-31T01:29:04;14.70;99.90
44170;DHT22;29836;52.286;9.576;2022-10-31T01:31:33;14.80;99.90
44170;DHT22;29836;52.286;9.576;2022-10-31T01:33:58;14.80;99.90
44170;DHT22;29836;52.286;9.576;2022-10-31T01:36:29;14.80;99.90
44170;DHT22;29836;52.286;9.576;2022-10-31T01:38:58;14.80;99.90
44170;DHT22;29836;52.286;9.576;2022-10-31T01:41:26;14.80;99.90
44170;DHT22;29836;52.286;9.576;2022-10-31T01:44:01;14.80;99.90
44170;DHT22;29836;52.286;9.576;2022-10-31T01:46:34;14.80;99.90
44170;DHT22;29836;52.286;9.576;2022-10-31T01:49:05;14.80;99.90
44170;DHT22;29836;52.286;9.576;2022-10-31T01:51:37;14.70;99.90
44170;DHT22;29836;52.286;9.576;2022-10-31T01:54:07;14.60;99.90
44170;DHT22;29836;52.286;9.576;2022-10-31T01:56:39;14.50;99.90
44170;DHT22;29836;52.286;9.576;2022-10-31T01:59:08;14.40;99.90
44170;DHT22;29836;52.286;9.576;2022-10-31T02:01:35;14.30;99.90
44170;DHT22;29836;52.286;9.576;2022-10-31T02:04:01;14.30;99.90
44170;DHT22;29836;52.286;9.576;2022-10-31T02:06:38;14.20;99.90
44170;DHT22;29836;52.286;9.576;2022-10-31T02:09:06;14.20;99.90
44170;DHT22;29836;52.286;9.576;2022-10-31T02:11:33;14.20;99.90
44170;DHT22;29836;52.286;9.576;2022-10-31T02:14:02;14.10;99.90
44170;DHT22;29836;52.286;9.576;2022-10-31T02:16:28;14.10;99.90
44170;DHT22;29836;52.286;9.576;2022-10-31T02:18:54;14.00;99.90
44170;DHT22;29836;52.286;9.576;2022-10-31T02:21:51;14.00;99.90
44170;DHT22;29836;52.286;9.576;2022-10-31T02:30:23;13.80;99.90
44170;DHT22;29836;52.286;9.576;2022-10-31T02:35:31;13.60;99.90
44170;DHT22;29836;52.286;9.576;2022-10-31T02:40:40;13.40;99.90
44170;DHT22;29836;52.286;9.576;2022-10-31T02:46:27;13.30;99.90
44170;DHT22;29836;52.286;9.576;2022-10-31T02:48:37;13.20;99.90
44170;DHT22;29836;52.286;9.576;2022-10-31T02:51:04;13.10;99.90
44170;DHT22;29836;52.286;9.576;2022-10-31T02:53:35;13.00;99.90
44170;DHT22;29836;52.286;9.576;2022-10-31T02:56:12;13.00;99.90
44170;DHT22;29836;52.286;9.576;2022-10-31T02:58:52;12.90;99.90
44170;DHT22;29836;52.286;9.576;2022-10-31T03:04:12;12.70;99.90
44170;DHT22;29836;52.286;9.576;2022-10-31T03:09:55;12.50;99.90
44170;DHT22;29836;52.286;9.576;2022-10-31T03:12:28;12.50;99.90
44170;DHT22;29836;52.286;9.576;2022-10-31T03:18:00;12.40;99.90
44170;DHT22;29836;52.286;9.576;2022-10-31T03:20:30;12.40;99.90
44170;DHT22;29836;52.286;9.576;2022-10-31T03:22:59;12.30;99.90
44170;DHT22;29836;52.286;9.576;2022-10-31T03:25:26;12.40;99.90
44170;DHT22;29836;52.286;9.576;2022-10-31T03:27:52;12.40;99.90
44170;DHT22;29836;52.286;9.576;2022-10-31T03:30:19;12.30;99.90
44170;DHT22;29836;52.286;9.576;2022-10-31T03:32:51;12.30;99.90
44170;DHT22;29836;52.286;9.576;2022-10-31T03:35:20;12.30;99.90
44170;DHT22;29836;52.286;9.576;2022-10-31T03:37:48;12.30;99.90
44170;DHT22;29836;52.286;9.576;2022-10-31T03:40:15;12.30;99.90
44170;DHT22;29836;52.286;9.576;2022-10-31T03:42:46;12.30;99.90
44170;DHT22;29836;52.286;9.576;2022-10-31T03:45:22;12.20;99.90
44170;DHT22;29836;52.286;9.576;2022-10-31T03:47:49;12.10;99.90
44170;DHT22;29836;52.286;9.576;2022-10-31T03:50:15;12.10;99.90
44170;DHT22;29836;52.286;9.576;2022-10-31T03:53:04;12.00;99.90
44170;DHT22;29836;52.286;9.576;2022-10-31T03:58:09;11.90;99.90
44170;DHT22;29836;52.286;9.576;2022-10-31T04:00:38;11.90;99.90
44170;DHT22;29836;52.286;9.576;2022-10-31T04:03:19;11.80;99.90
44170;DHT22;29836;52.286;9.576;2022-10-31T04:05:47;11.80;99.90
44170;DHT22;29836;52.286;9.576;2022-10-31T04:08:19;11.80;99.90
44170;DHT22;29836;52.286;9.576;2022-10-31T04:10:48;11.70;99.90
44170;DHT22;29836;52.286;9.576;2022-10-31T04:13:19;11.70;99.90
44170;DHT22;29836;52.286;9.576;2022-10-31T04:15:46;11.60;99.90
44170;DHT22;29836;52.286;9.576;2022-10-31T04:18:13;11.60;99.90
44170;DHT22;29836;52.286;9.576;2022-10-31T04:20:41;11.60;99.90
44170;DHT22;29836;52.286;9.576;2022-10-31T04:23:22;11.60;99.90
44170;DHT22;29836;52.286;9.576;2022-10-31T04:25:48;11.50;99.90
44170;DHT22;29836;52.286;9.576;2022-10-31T04:28:14;11.50;99.90
44170;DHT22;29836;52.286;9.576;2022-10-31T04:30:39;11.50;99.90
44170;DHT22;29836;52.286;9.576;2022-10-31T04:33:05;11.50;99.90
44170;DHT22;29836;52.286;9.576;2022-10-31T04:35:30;11.50;99.90
44170;DHT22;29836;52.286;9.576;2022-10-31T04:37:56;11.50;99.90
44170;DHT22;29836;52.286;9.576;2022-10-31T04:40:21;11.40;99.90
44170;DHT22;29836;52.286;9.576;2022-10-31T04:42:47;11.40;99.90
44170;DHT22;29836;52.286;9.576;2022-10-31T04:45:12;11.40;99.90
44170;DHT22;29836;52.286;9.576;2022-10-31T04:47:38;11.30;99.90
44170;DHT22;29836;52.286;9.576;2022-10-31T04:50:04;11.30;99.90
44170;DHT22;29836;52.286;9.576;2022-10-31T04:52:29;11.20;99.90
44170;DHT22;29836;52.286;9.576;2022-10-31T04:54:55;11.20;99.90
44170;DHT22;29836;52.286;9.576;2022-10-31T04:57:20;11.20;99.90
44170;DHT22;29836;52.286;9.576;2022-10-31T04:59:46;11.10;99.90
44170;DHT22;29836;52.286;9.576;2022-10-31T05:02:11;11.10;99.90
44170;DHT22;29836;52.286;9.576;2022-10-31T05:04:37;11.00;99.90
44170;DHT22;29836;52.286;9.576;2022-10-31T05:07:02;11.00;99.90
44170;DHT22;29836;52.286;9.576;2022-10-31T05:09:28;10.90;99.90
44170;DHT22;29836;52.286;9.576;2022-10-31T05:11:53;10.90;99.90
44170;DHT22;29836;52.286;9.576;2022-10-31T05:14:19;10.80;99.90
44170;DHT22;29836;52.286;9.576;2022-10-31T05:16:44;10.80;99.90
44170;DHT22;29836;52.286;9.576;2022-10-31T05:19:10;10.80;99.90
44170;DHT22;29836;52.286;9.576;2022-10-31T05:21:35;10.70;99.90
44170;DHT22;29836;52.286;9.576;2022-10-31T05:24:01;10.60;99.90
44170;DHT22;29836;52.286;9.576;2022-10-31T05:26:26;10.70;99.90
44170;DHT22;29836;52.286;9.576;2022-10-31T05:28:52;10.70;99.90
44170;DHT22;29836;52.286;9.576;2022-10-31T05:31:17;10.80;99.90
44170;DHT22;29836;52.286;9.576;2022-10-31T05:33:43;10.80;99.90
44170;DHT22;29836;52.286;9.576;2022-10-31T05:36:08;10.90;99.90
44170;DHT22;29836;52.286;9.576;2022-10-31T05:38:34;11.00;99.90
44170;DHT22;29836;52.286;9.576;2022-10-31T05:41:00;11.00;99.90
44170;DHT22;29836;52.286;9.576;2022-10-31T05:43:27;11.00;99.90
44170;DHT22;29836;52.286;9.576;2022-10-31T05:45:56;11.10;99.90
44170;DHT22;29836;52.286;9.576;2022-10-31T05:48:21;11.10;99.90
44170;DHT22;29836;52.286;9.576;2022-10-31T05:50:48;11.10;99.90
44170;DHT22;29836;52.286;9.576;2022-10-31T05:53:13;11.10;99.90
44170;DHT22;29836;52.286;9.576;2022-10-31T05:55:39;11.00;99.90
44170;DHT22;29836;52.286;9.576;2022-10-31T05:58:06;11.00;99.90
44170;DHT22;29836;52.286;9.576;2022-10-31T06:00:31;11.00;99.90
44170;DHT22;29836;52.286;9.576;2022-10-31T06:03:05;11.00;99.90
44170;DHT22;29836;52.286;9.576;2022-10-31T06:05:31;11.00;99.90
44170;DHT22;29836;52.286;9.576;2022-10-31T06:07:58;11.00;99.90
44170;DHT22;29836;52.286;9.576;2022-10-31T06:10:23;10.90;99.90
44170;DHT22;29836;52.286;9.576;2022-10-31T06:12:49;10.80;99.90
44170;DHT22;29836;52.286;9.576;2022-10-31T06:15:15;10.80;99.90
44170;DHT22;29836;52.286;9.576;2022-10-31T06:17:41;10.80;99.90
44170;DHT22;29836;52.286;9.576;2022-10-31T06:20:07;10.80;99.90
44170;DHT22;29836;52.286;9.576;2022-10-31T06:22:33;10.90;99.90
44170;DHT22;29836;52.286;9.576;2022-10-31T06:24:58;10.90;99.90
44170;DHT22;29836;52.286;9.576;2022-10-31T06:27:24;10.80;99.90
44170;DHT22;29836;52.286;9.576;2022-10-31T06:29:50;10.80;99.90
44170;DHT22;29836;52.286;9.576;2022-10-31T06:32:16;10.80;99.90
44170;DHT22;29836;52.286;9.576;2022-10-31T06:34:42;10.90;99.90
44170;DHT22;29836;52.286;9.576;2022-10-31T06:37:10;10.90;99.90
44170;DHT22;29836;52.286;9.576;2022-10-31T06:39:36;10.90;99.90
44170;DHT22;29836;52.286;9.576;2022-10-31T06:42:02;11.00;99.90
44170;DHT22;29836;52.286;9.576;2022-10-31T06:44:28;11.00;99.90
44170;DHT22;29836;52.286;9.576;2022-10-31T06:46:53;11.20;99.90
44170;DHT22;29836;52.286;9.576;2022-10-31T06:49:19;11.30;99.90
44170;DHT22;29836;52.286;9.576;2022-10-31T06:51:48;11.40;99.90
44170;DHT22;29836;52.286;9.576;2022-10-31T06:54:14;11.50;99.90
44170;DHT22;29836;52.286;9.576;2022-10-31T06:56:39;11.60;99.90
44170;DHT22;29836;52.286;9.576;2022-10-31T06:59:05;11.80;99.90
44170;DHT22;29836;52.286;9.576;2022-10-31T07:01:31;11.80;99.90
44170;DHT22;29836;52.286;9.576;2022-10-31T07:03:56;12.00;99.90
44170;DHT22;29836;52.286;9.576;2022-10-31T07:06:22;12.00;99.90
44170;DHT22;29836;52.286;9.576;2022-10-31T07:08:47;12.10;99.90
44170;DHT22;29836;52.286;9.576;2022-10-31T07:11:13;12.10;99.90
44170;DHT22;29836;52.286;9.576;2022-10-31T07:13:38;12.10;99.90
44170;DHT22;29836;52.286;9.576;2022-10-31T07:16:05;12.10;99.90
44170;DHT22;29836;52.286;9.576;2022-10-31T07:18:32;12.10;99.90
44170;DHT22;29836;52.286;9.576;2022-10-31T07:20:57;12.20;99.90
44170;DHT22;29836;52.286;9.576;2022-10-31T07:23:23;12.30;99.90
44170;DHT22;29836;52.286;9.576;2022-10-31T07:25:53;12.40;99.90
44170;DHT22;29836;52.286;9.576;2022-10-31T07:28:19;12.50;99.90
44170;DHT22;29836;52.286;9.576;2022-10-31T07:30:52;12.60;99.90
44170;DHT22;29836;52.286;9.576;2022-10-31T07:33:19;12.70;99.90
44170;DHT22;29836;52.286;9.576;2022-10-31T07:35:44;12.70;99.90
44170;DHT22;29836;52.286;9.576;2022-10-31T07:38:11;12.80;99.90
44170;DHT22;29836;52.286;9.576;2022-10-31T07:40:38;12.90;99.90
44170;DHT22;29836;52.286;9.576;2022-10-31T07:43:04;13.10;99.90
44170;DHT22;29836;52.286;9.576;2022-10-31T07:45:29;13.20;99.90
44170;DHT22;29836;52.286;9.576;2022-10-31T07:47:55;13.40;99.90
44170;DHT22;29836;52.286;9.576;2022-10-31T07:50:23;13.70;99.90
44170;DHT22;29836;52.286;9.576;2022-10-31T07:53:01;14.00;99.90
44170;DHT22;29836;52.286;9.576;2022-10-31T07:55:27;14.40;99.90
44170;DHT22;29836;52.286;9.576;2022-10-31T07:58:01;15.00;99.90
44170;DHT22;29836;52.286;9.576;2022-10-31T08:00:27;15.70;99.90
44170;DHT22;29836;52.286;9.576;2022-10-31T08:03:00;16.50;99.90
44170;DHT22;29836;52.286;9.576;2022-10-31T08:05:25;17.20;99.90
44170;DHT22;29836;52.286;9.576;2022-10-31T08:07:51;17.70;99.90
44170;DHT22;29836;52.286;9.576;2022-10-31T08:10:17;18.00;99.90
44170;DHT22;29836;52.286;9.576;2022-10-31T08:12:42;18.20;99.90
44170;DHT22;29836;52.286;9.576;2022-10-31T08:15:08;18.30;99.90
44170;DHT22;29836;52.286;9.576;2022-10-31T08:17:37;18.20;99.90
44170;DHT22;29836;52.286;9.576;2022-10-31T08:20:04;18.20;99.90
44170;DHT22;29836;52.286;9.576;2022-10-31T08:22:30;18.20;99.90
44170;DHT22;29836;52.286;9.576;2022-10-31T08:24:56;18.00;99.90
44170;DHT22;29836;52.286;9.576;2022-10-31T08:27:21;18.10;99.90
44170;DHT22;29836;52.286;9.576;2022-10-31T08:29:47;18.30;99.90
44170;DHT22;29836;52.286;9.576;2022-10-31T08:32:13;18.70;99.90
44170;DHT22;29836;52.286;9.576;2022-10-31T08:34:38;19.00;99.90
44170;DHT22;29836;52.286;9.576;2022-10-31T08:37:04;19.30;99.90
44170;DHT22;29836;52.286;9.576;2022-10-31T08:39:29;19.50;99.90
44170;DHT22;29836;52.286;9.576;2022-10-31T08:41:55;19.60;99.90
44170;DHT22;29836;52.286;9.576;2022-10-31T08:44:20;19.70;99.90
44170;DHT22;29836;52.286;9.576;2022-10-31T08:46:46;19.60;99.90
44170;DHT22;29836;52.286;9.576;2022-10-31T08:49:11;19.80;99.90
44170;DHT22;29836;52.286;9.576;2022-10-31T08:51:37;20.70;99.90
44170;DHT22;29836;52.286;9.576;2022-10-31T08:54:02;22.00;99.90
44170;DHT22;29836;52.286;9.576;2022-10-31T08:56:28;23.10;97.80
44170;DHT22;29836;52.286;9.576;2022-10-31T08:58:53;23.60;95.90
44170;DHT22;29836;52.286;9.576;2022-10-31T09:01:19;23.90;96.30
44170;DHT22;29836;52.286;9.576;2022-10-31T09:03:44;24.70;95.40
44170;DHT22;29836;52.286;9.576;2022-10-31T09:06:10;25.90;93.40
44170;DHT22;29836;52.286;9.576;2022-10-31T09:08:36;26.90;91.20
44170;DHT22;29836;52.286;9.576;2022-10-31T09:11:02;27.30;87.80
44170;DHT22;29836;52.286;9.576;2022-10-31T09:13:28;27.50;85.60
44170;DHT22;29836;52.286;9.576;2022-10-31T09:15:56;27.50;83.10
44170;DHT22;29836;52.286;9.576;2022-10-31T09:18:23;27.50;82.20
44170;DHT22;29836;52.286;9.576;2022-10-31T09:20:49;27.60;81.10
44170;DHT22;29836;52.286;9.576;2022-10-31T09:23:17;27.40;81.00
44170;DHT22;29836;52.286;9.576;2022-10-31T09:25:43;26.80;81.00
44170;DHT22;29836;52.286;9.576;2022-10-31T09:28:11;26.20;82.30
44170;DHT22;29836;52.286;9.576;2022-10-31T09:30:37;25.50;85.60
44170;DHT22;29836;52.286;9.576;2022-10-31T09:33:05;25.10;85.70
44170;DHT22;29836;52.286;9.576;2022-10-31T09:35:31;24.40;88.00
44170;DHT22;29836;52.286;9.576;2022-10-31T09:38:02;23.50;90.60
44170;DHT22;29836;52.286;9.576;2022-10-31T09:40:36;22.70;92.70
44170;DHT22;29836;52.286;9.576;2022-10-31T09:43:30;21.80;93.60
44170;DHT22;29836;52.286;9.576;2022-10-31T09:46:11;20.90;96.70
44170;DHT22;29836;52.286;9.576;2022-10-31T09:49:09;20.30;99.50
44170;DHT22;29836;52.286;9.576;2022-10-31T09:51:48;20.00;99.90
44170;DHT22;29836;52.286;9.576;2022-10-31T09:54:20;19.90;99.90
44170;DHT22;29836;52.286;9.576;2022-10-31T09:56:46;19.80;99.90
44170;DHT22;29836;52.286;9.576;2022-10-31T09:59:28;19.70;99.90
44170;DHT22;29836;52.286;9.576;2022-10-31T10:01:59;19.70;99.90
44170;DHT22;29836;52.286;9.576;2022-10-31T10:09:41;20.20;99.90
44170;DHT22;29836;52.286;9.576;2022-10-31T10:18:12;20.70;99.90
44170;DHT22;29836;52.286;9.576;2022-10-31T10:20:51;20.50;99.90
44170;DHT22;29836;52.286;9.576;2022-10-31T10:26:49;19.40;99.90
44170;DHT22;29836;52.286;9.576;2022-10-31T10:29:36;19.10;99.90
44170;DHT22;29836;52.286;9.576;2022-10-31T10:32:10;19.00;99.90
44170;DHT22;29836;52.286;9.576;2022-10-31T10:34:44;18.90;99.90
44170;DHT22;29836;52.286;9.576;2022-10-31T10:37:20;18.80;99.90
44170;DHT22;29836;52.286;9.576;2022-10-31T10:39:52;18.60;99.90
44170;DHT22;29836;52.286;9.576;2022-10-31T10:42:18;18.30;99.90
44170;DHT22;29836;52.286;9.576;2022-10-31T10:45:18;18.20;99.90
44170;DHT22;29836;52.286;9.576;2022-10-31T10:48:16;18.10;99.90
44170;DHT22;29836;52.286;9.576;2022-10-31T10:50:51;18.10;99.90
44170;DHT22;29836;52.286;9.576;2022-10-31T10:59:20;18.40;99.90
44170;DHT22;29836;52.286;9.576;2022-10-31T11:01:48;18.40;99.90
44170;DHT22;29836;52.286;9.576;2022-10-31T11:04:28;18.30;99.90
44170;DHT22;29836;52.286;9.576;2022-10-31T11:07:03;18.40;99.90
44170;DHT22;29836;52.286;9.576;2022-10-31T11:09:29;18.50;99.90
44170;DHT22;29836;52.286;9.576;2022-10-31T11:11:55;18.50;99.90
44170;DHT22;29836;52.286;9.576;2022-10-31T11:14:22;18.50;99.90
44170;DHT22;29836;52.286;9.576;2022-10-31T11:17:06;18.60;99.90
44170;DHT22;29836;52.286;9.576;2022-10-31T11:19:33;18.90;99.90
44170;DHT22;29836;52.286;9.576;2022-10-31T11:22:14;18.90;99.90
44170;DHT22;29836;52.286;9.576;2022-10-31T11:24:41;18.90;99.90
44170;DHT22;29836;52.286;9.576;2022-10-31T11:27:14;18.90;99.90
44170;DHT22;29836;52.286;9.576;2022-10-31T11:29:40;19.10;99.90
44170;DHT22;29836;52.286;9.576;2022-10-31T11:32:22;19.40;99.90
44170;DHT22;29836;52.286;9.576;2022-10-31T11:35:10;19.50;99.90
44170;DHT22;29836;52.286;9.576;2022-10-31T11:37:41;19.80;99.90
44170;DHT22;29836;52.286;9.576;2022-10-31T11:40:20;19.90;99.90
44170;DHT22;29836;52.286;9.576;2022-10-31T11:42:46;19.80;99.90
44170;DHT22;29836;52.286;9.576;2022-10-31T11:45:38;19.90;99.90
44170;DHT22;29836;52.286;9.576;2022-10-31T11:48:23;20.00;99.90
44170;DHT22;29836;52.286;9.576;2022-10-31T11:50:56;20.00;99.90
44170;DHT22;29836;52.286;9.576;2022-10-31T11:53:35;19.90;99.90
44170;DHT22;29836;52.286;9.576;2022-10-31T11:56:15;19.80;99.90
44170;DHT22;29836;52.286;9.576;2022-10-31T11:58:41;19.80;99.90
44170;DHT22;29836;52.286;9.576;2022-10-31T12:01:26;19.70;99.90
44170;DHT22;29836;52.286;9.576;2022-10-31T12:06:30;19.50;99.90
44170;DHT22;29836;52.286;9.576;2022-10-31T12:08:57;19.40;99.90
44170;DHT22;29836;52.286;9.576;2022-10-31T12:14:19;19.40;99.90
44170;DHT22;29836;52.286;9.576;2022-10-31T12:37:15;19.40;99.90
44170;DHT22;29836;52.286;9.576;2022-10-31T12:40:10;19.40;99.90
44170;DHT22;29836;52.286;9.576;2022-10-31T12:45:51;19.20;99.90
44170;DHT22;29836;52.286;9.576;2022-10-31T12:51:24;18.90;99.90
44170;DHT22;29836;52.286;9.576;2022-10-31T12:54:16;18.80;99.90
44170;DHT22;29836;52.286;9.576;2022-10-31T12:59:48;18.30;99.90
44170;DHT22;29836;52.286;9.576;2022-10-31T13:02:38;18.20;99.90
44170;DHT22;29836;52.286;9.576;2022-10-31T13:07:56;17.90;99.90
44170;DHT22;29836;52.286;9.576;2022-10-31T13:10:27;17.80;99.90
44170;DHT22;29836;52.286;9.576;2022-10-31T13:13:07;17.80;99.90
44170;DHT22;29836;52.286;9.576;2022-10-31T13:15:45;17.90;99.90
44170;DHT22;29836;52.286;9.576;2022-10-31T13:18:19;17.90;99.90
44170;DHT22;29836;52.286;9.576;2022-10-31T13:20:49;17.90;99.90
44170;DHT22;29836;52.286;9.576;2022-10-31T13:25:56;17.90;99.90
44170;DHT22;29836;52.286;9.576;2022-10-31T13:28:46;17.90;99.90
44170;DHT22;29836;52.286;9.576;2022-10-31T13:31:12;17.80;99.90
44170;DHT22;29836;52.286;9.576;2022-10-31T13:33:39;17.80;99.90
44170;DHT22;29836;52.286;9.576;2022-10-31T13:36:21;17.80;99.90
44170;DHT22;29836;52.286;9.576;2022-10-31T13:41:43;17.70;99.90
44170;DHT22;29836;52.286;9.576;2022-10-31T13:44:14;17.60;99.90
44170;DHT22;29836;52.286;9.576;2022-10-31T13:46:42;17.60;99.90
44170;DHT22;29836;52.286;9.576;2022-10-31T13:49:40;17.60;99.90
44170;DHT22;29836;52.286;9.576;2022-10-31T13:54:36;17.50;99.90
44170;DHT22;29836;52.286;9.576;2022-10-31T13:57:06;17.50;99.90
44170;DHT22;29836;52.286;9.576;2022-10-31T13:59:33;17.50;99.90
44170;DHT22;29836;52.286;9.576;2022-10-31T14:02:14;17.50;99.90
44170;DHT22;29836;52.286;9.576;2022-10-31T14:04:49;17.50;99.90
44170;DHT22;29836;52.286;9.576;2022-10-31T14:07:21;17.40;99.90
44170;DHT22;29836;52.286;9.576;2022-10-31T14:10:04;17.40;99.90
44170;DHT22;29836;52.286;9.576;2022-10-31T14:12:40;17.40;99.90
44170;DHT22;29836;52.286;9.576;2022-10-31T14:15:19;17.30;99.90
44170;DHT22;29836;52.286;9.576;2022-10-31T14:17:55;17.20;99.90
44170;DHT22;29836;52.286;9.576;2022-10-31T14:20:22;17.10;99.90
44170;DHT22;29836;52.286;9.576;2022-10-31T14:22:49;17.00;99.90
44170;DHT22;29836;52.286;9.576;2022-10-31T14:25:28;16.90;99.90
44170;DHT22;29836;52.286;9.576;2022-10-31T14:27:54;16.90;99.90
44170;DHT22;29836;52.286;9.576;2022-10-31T14:30:22;16.80;99.90
44170;DHT22;29836;52.286;9.576;2022-10-31T14:33:01;16.80;99.90
44170;DHT22;29836;52.286;9.576;2022-10-31T14:39:18;16.60;99.90
44170;DHT22;29836;52.286;9.576;2022-10-31T14:47:36;16.50;99.90
44170;DHT22;29836;52.286;9.576;2022-10-31T14:50:08;16.40;99.90
44170;DHT22;29836;52.286;9.576;2022-10-31T14:52:38;16.40;99.90
44170;DHT22;29836;52.286;9.576;2022-10-31T14:55:07;16.20;99.90
44170;DHT22;29836;52.286;9.576;2022-10-31T14:57:37;16.20;99.90
44170;DHT22;29836;52.286;9.576;2022-10-31T15:00:06;16.10;99.90
44170;DHT22;29836;52.286;9.576;2022-10-31T15:05:20;16.00;99.90
44170;DHT22;29836;52.286;9.576;2022-10-31T15:07:54;15.90;99.90
44170;DHT22;29836;52.286;9.576;2022-10-31T15:10:29;15.90;99.90
44170;DHT22;29836;52.286;9.576;2022-10-31T15:13:08;15.90;99.90
44170;DHT22;29836;52.286;9.576;2022-10-31T15:15:35;15.80;99.90
44170;DHT22;29836;52.286;9.576;2022-10-31T15:18:04;15.80;99.90
44170;DHT22;29836;52.286;9.576;2022-10-31T15:20:33;15.70;99.90
44170;DHT22;29836;52.286;9.576;2022-10-31T15:23:02;15.60;99.90
44170;DHT22;29836;52.286;9.576;2022-10-31T15:25:32;15.50;99.90
44170;DHT22;29836;52.286;9.576;2022-10-31T15:27:58;15.40;99.90
44170;DHT22;29836;52.286;9.576;2022-10-31T15:30:27;15.30;99.90
44170;DHT22;29836;52.286;9.576;2022-10-31T15:32:53;15.20;99.90
44170;DHT22;29836;52.286;9.576;2022-10-31T15:35:28;15.10;99.90
44170;DHT22;29836;52.286;9.576;2022-10-31T15:37:55;15.00;99.90
44170;DHT22;29836;52.286;9.576;2022-10-31T15:40:23;15.00;99.90
44170;DHT22;29836;52.286;9.576;2022-10-31T15:43:02;15.00;99.90
44170;DHT22;29836;52.286;9.576;2022-10-31T15:45:29;14.90;99.90
44170;DHT22;29836;52.286;9.576;2022-10-31T15:47:57;14.90;99.90
44170;DHT22;29836;52.286;9.576;2022-10-31T15:52:58;14.80;99.90
44170;DHT22;29836;52.286;9.576;2022-10-31T15:55:26;14.70;99.90
44170;DHT22;29836;52.286;9.576;2022-10-31T15:57:56;14.70;99.90
44170;DHT22;29836;52.286;9.576;2022-10-31T16:00:28;14.60;99.90
44170;DHT22;29836;52.286;9.576;2022-10-31T16:05:50;14.50;99.90
44170;DHT22;29836;52.286;9.576;2022-10-31T16:11:33;14.50;99.90
44170;DHT22;29836;52.286;9.576;2022-10-31T16:14:23;14.50;99.90
44170;DHT22;29836;52.286;9.576;2022-10-31T16:16:52;14.40;99.90
44170;DHT22;29836;52.286;9.576;2022-10-31T16:19:36;14.40;99.90
44170;DHT22;29836;52.286;9.576;2022-10-31T16:22:12;14.30;99.90
44170;DHT22;29836;52.286;9.576;2022-10-31T16:24:58;14.30;99.90
44170;DHT22;29836;52.286;9.576;2022-10-31T16:27:28;14.30;99.90
44170;DHT22;29836;52.286;9.576;2022-10-31T16:29:56;14.30;99.90
44170;DHT22;29836;52.286;9.576;2022-10-31T16:32:27;14.30;99.90
44170;DHT22;29836;52.286;9.576;2022-10-31T16:35:00;14.30;99.90
44170;DHT22;29836;52.286;9.576;2022-10-31T16:37:26;14.30;99.90
44170;DHT22;29836;52.286;9.576;2022-10-31T16:39:51;14.30;99.90
44170;DHT22;29836;52.286;9.576;2022-10-31T16:42:17;14.40;99.90
44170;DHT22;29836;52.286;9.576;2022-10-31T16:44:44;14.30;99.90
44170;DHT22;29836;52.286;9.576;2022-10-31T16:47:13;14.40;99.90
44170;DHT22;29836;52.286;9.576;2022-10-31T16:49:39;14.40;99.90
44170;DHT22;29836;52.286;9.576;2022-10-31T16:52:05;14.50;99.90
44170;DHT22;29836;52.286;9.576;2022-10-31T16:54:30;14.50;99.90
44170;DHT22;29836;52.286;9.576;2022-10-31T16:56:58;14.50;99.90
44170;DHT22;29836;52.286;9.576;2022-10-31T16:59:24;14.50;99.90
44170;DHT22;29836;52.286;9.576;2022-10-31T17:01:51;14.40;99.90
44170;DHT22;29836;52.286;9.576;2022-10-31T17:04:16;14.50;99.90
44170;DHT22;29836;52.286;9.576;2022-10-31T17:06:42;14.50;99.90
44170;DHT22;29836;52.286;9.576;2022-10-31T17:09:08;14.40;99.90
44170;DHT22;29836;52.286;9.576;2022-10-31T17:11:34;14.40;99.90
44170;DHT22;29836;52.286;9.576;2022-10-31T17:14:00;14.40;99.90
44170;DHT22;29836;52.286;9.576;2022-10-31T17:16:26;14.40;99.90
44170;DHT22;29836;52.286;9.576;2022-10-31T17:18:51;14.40;99.90
44170;DHT22;29836;52.286;9.576;2022-10-31T17:21:20;14.40;99.90
44170;DHT22;29836;52.286;9.576;2022-10-31T17:23:48;14.40;99.90
44170;DHT22;29836;52.286;9.576;2022-10-31T17:26:13;14.40;99.90
44170;DHT22;29836;52.286;9.576;2022-10-31T17:28:39;14.50;99.90
44170;DHT22;29836;52.286;9.576;2022-10-31T17:31:05;14.50;99.90
44170;DHT22;29836;52.286;9.576;2022-10-31T17:33:31;14.50;99.90
44170;DHT22;29836;52.286;9.576;2022-10-31T17:35:56;14.50;99.90
44170;DHT22;29836;52.286;9.576;2022-10-31T17:38:22;14.40;99.90